createdAt,value
2018-01-05T00:00:44.816Z,92.93
2018-01-05T00:03:12.519Z,93.09
2018-01-05T00:05:40.250Z,93.29
2018-01-05T00:08:08.912Z,93.29
2018-01-05T00:10:36.685Z,93.77
2018-01-05T00:13:05.435Z,93.53
2018-01-05T00:15:33.168Z,93.54
2018-01-05T00:18:00.842Z,93.62
2018-01-05T00:20:28.648Z,93.80
2018-01-05T00:22:56.394Z,94.13
2018-01-05T00:25:24.095Z,94.18
2018-01-05T00:27:51.904Z,93.97
2018-01-05T00:30:20.856Z,93.73
2018-01-05T00:32:48.587Z,94.48
2018-01-05T00:35:16.300Z,94.36
2018-01-05T00:37:44.227Z,94.10
2018-01-05T00:40:11.918Z,94.20
2018-01-05T00:42:39.692Z,94.32
2018-01-05T00:45:07.510Z,94.18
2018-01-05T00:47:35.251Z,94.57
2018-01-05T00:50:02.937Z,94.67
2018-01-05T00:52:30.615Z,94.26
2018-01-05T00:54:58.580Z,94.01
2018-01-05T00:57:26.304Z,93.76
2018-01-05T00:59:54.052Z,93.35
2018-01-05T01:02:21.772Z,93.55
2018-01-05T01:04:49.516Z,94.03
2018-01-05T01:07:17.200Z,94.32
2018-01-05T01:09:45.011Z,94.16
2018-01-05T01:12:12.762Z,93.93
2018-01-05T01:14:40.506Z,94.00
2018-01-05T01:17:08.371Z,94.32
2018-01-05T01:19:36.055Z,94.52
2018-01-05T01:22:04.551Z,94.33
2018-01-05T01:24:32.234Z,94.60
2018-01-05T01:27:00.059Z,94.73
2018-01-05T01:29:27.783Z,94.53
2018-01-05T01:31:55.494Z,94.49
2018-01-05T01:34:23.431Z,94.31
2018-01-05T01:36:51.146Z,94.00
2018-01-05T01:39:18.828Z,94.35
2018-01-05T01:41:46.574Z,94.19
2018-01-05T01:44:14.257Z,94.43
2018-01-05T01:46:41.966Z,94.20
2018-01-05T01:49:09.651Z,94.27
2018-01-05T01:51:37.361Z,94.10
2018-01-05T01:54:05.062Z,94.02
2018-01-05T01:56:32.802Z,94.14
2018-01-05T01:59:00.478Z,94.38
2018-01-05T02:01:28.222Z,93.98
2018-01-05T02:03:57.027Z,94.00
2018-01-05T02:06:25.391Z,93.68
2018-01-05T02:08:53.141Z,93.50
2018-01-05T02:11:20.842Z,93.58
2018-01-05T02:13:48.576Z,94.16
2018-01-05T02:16:16.329Z,94.53
2018-01-05T02:18:44.068Z,94.27
2018-01-05T02:21:11.740Z,93.82
2018-01-05T02:23:39.478Z,93.32
2018-01-05T02:26:07.202Z,94.12
2018-01-05T02:28:34.901Z,94.90
2018-01-05T02:31:02.695Z,94.95
2018-01-05T02:33:30.362Z,94.83
2018-01-05T02:35:58.108Z,94.96
2018-01-05T02:38:25.809Z,94.54
2018-01-05T02:40:53.590Z,94.24
2018-01-05T02:43:21.278Z,94.08
2018-01-05T02:45:49.025Z,94.00
2018-01-05T02:48:16.718Z,94.44
2018-01-05T02:50:44.379Z,94.26
2018-01-05T02:53:12.130Z,93.88
2018-01-05T02:55:39.854Z,94.05
2018-01-05T02:58:07.569Z,93.99
2018-01-05T03:00:35.294Z,94.42
2018-01-05T03:03:02.980Z,94.68
2018-01-05T03:05:30.665Z,94.60
2018-01-05T03:07:58.490Z,94.56
2018-01-05T03:10:26.214Z,94.40
2018-01-05T03:12:53.976Z,94.61
2018-01-05T03:15:21.641Z,94.56
2018-01-05T03:17:49.349Z,94.22
2018-01-05T03:20:17.119Z,94.32
2018-01-05T03:22:44.847Z,94.45
2018-01-05T03:25:12.565Z,94.26
2018-01-05T03:27:40.278Z,94.12
2018-01-05T03:30:08.032Z,93.90
2018-01-05T03:32:35.724Z,94.25
2018-01-05T03:35:03.456Z,94.24
2018-01-05T03:37:31.252Z,94.14
2018-01-05T03:39:59.040Z,94.00
2018-01-05T03:42:26.738Z,93.99
2018-01-05T03:44:54.463Z,93.98
2018-01-05T03:47:22.161Z,94.50
2018-01-05T03:49:50.831Z,94.35
2018-01-05T03:52:18.514Z,94.06
2018-01-05T03:54:46.227Z,93.92
2018-01-05T03:57:14.301Z,94.35
2018-01-05T03:59:42.043Z,94.42
2018-01-05T04:02:09.803Z,94.08
2018-01-05T04:04:37.516Z,94.01
2018-01-05T04:07:05.269Z,94.49
2018-01-05T04:09:33.571Z,94.29
2018-01-05T04:12:01.365Z,94.49
2018-01-05T04:14:29.055Z,94.75
2018-01-05T04:16:56.749Z,94.52
2018-01-05T04:19:24.515Z,94.43
2018-01-05T04:21:52.241Z,94.42
2018-01-05T04:24:20.013Z,94.36
2018-01-05T04:26:47.709Z,93.96
2018-01-05T04:29:15.452Z,93.85
2018-01-05T04:31:43.159Z,94.01
2018-01-05T04:34:10.919Z,94.21
2018-01-05T04:36:38.685Z,94.59
2018-01-05T04:39:06.421Z,94.67
2018-01-05T04:41:34.183Z,94.43
2018-01-05T04:44:01.916Z,94.04
2018-01-05T04:46:29.634Z,93.94
2018-01-05T04:48:57.467Z,94.11
2018-01-05T04:51:26.090Z,94.27
2018-01-05T04:53:53.768Z,94.29
2018-01-05T04:56:21.509Z,94.12
2018-01-05T04:58:49.244Z,94.58
2018-01-05T05:01:16.923Z,94.67
2018-01-05T05:03:44.678Z,94.28
2018-01-05T05:06:12.344Z,94.42
2018-01-05T05:08:40.065Z,94.37
2018-01-05T05:11:07.760Z,94.21
2018-01-05T05:13:35.487Z,94.03
2018-01-05T05:16:03.262Z,93.82
2018-01-05T05:18:30.978Z,93.81
2018-01-05T05:20:58.667Z,93.97
2018-01-05T05:23:26.388Z,93.95
2018-01-05T05:25:54.078Z,94.00
2018-01-05T05:28:21.786Z,94.12
2018-01-05T05:30:49.565Z,94.08
2018-01-05T05:33:17.328Z,94.11
2018-01-05T05:35:45.045Z,94.08
2018-01-05T05:38:12.788Z,93.79
2018-01-05T05:40:40.498Z,93.41
2018-01-05T05:43:08.218Z,93.51
2018-01-05T05:45:35.974Z,93.88
2018-01-05T05:48:03.726Z,93.95
2018-01-05T05:50:31.474Z,94.12
2018-01-05T05:52:59.192Z,94.12
2018-01-05T05:55:26.903Z,93.85
2018-01-05T05:57:54.673Z,94.19
2018-01-05T06:00:22.395Z,94.32
2018-01-05T06:02:50.281Z,94.67
2018-01-05T06:05:18.034Z,94.71
2018-01-05T06:07:45.720Z,94.40
2018-01-05T06:10:13.438Z,93.96
2018-01-05T06:12:41.174Z,94.20
2018-01-05T06:15:08.957Z,94.31
2018-01-05T06:17:36.674Z,94.17
2018-01-05T06:20:04.550Z,93.90
2018-01-05T06:22:32.270Z,94.26
2018-01-05T06:25:00.020Z,94.53
2018-01-05T06:27:27.754Z,94.41
2018-01-05T06:29:55.503Z,94.28
2018-01-05T06:32:23.187Z,93.86
2018-01-05T06:34:50.947Z,94.13
2018-01-05T06:37:18.666Z,94.46
2018-01-05T06:39:46.352Z,94.71
2018-01-05T06:42:14.078Z,95.20
2018-01-05T06:44:41.774Z,95.04
2018-01-05T06:47:09.483Z,94.78
2018-01-05T06:49:37.267Z,94.33
2018-01-05T06:52:04.974Z,94.39
2018-01-05T06:54:32.805Z,94.46
2018-01-05T06:57:00.500Z,94.89
2018-01-05T06:59:28.278Z,94.95
2018-01-05T07:01:55.997Z,94.63
2018-01-05T07:04:24.010Z,94.83
2018-01-05T07:06:51.812Z,95.17
2018-01-05T07:09:19.529Z,94.93
2018-01-05T07:11:47.293Z,95.00
2018-01-05T07:14:15.000Z,94.88
2018-01-05T07:16:42.696Z,94.59
2018-01-05T07:19:10.403Z,94.59
2018-01-05T07:21:38.136Z,94.81
2018-01-05T07:24:05.863Z,94.81
2018-01-05T07:26:33.552Z,94.53
2018-01-05T07:29:01.275Z,94.59
2018-01-05T07:31:29.024Z,94.40
2018-01-05T07:33:56.723Z,94.07
2018-01-05T07:36:24.469Z,93.96
2018-01-05T07:38:52.173Z,93.81
2018-01-05T07:41:19.881Z,93.53
2018-01-05T07:43:47.733Z,93.18
2018-01-05T07:46:15.474Z,93.25
2018-01-05T07:48:43.329Z,93.16
2018-01-05T07:51:11.075Z,93.35
2018-01-05T07:53:38.823Z,93.50
2018-01-05T07:56:06.546Z,93.47
2018-01-05T07:58:34.250Z,93.47
2018-01-05T08:01:02.088Z,93.65
2018-01-05T08:03:29.828Z,93.83
2018-01-05T08:05:57.713Z,93.62
2018-01-05T08:08:25.492Z,93.39
2018-01-05T08:10:53.373Z,93.55
2018-01-05T08:13:21.175Z,93.42
2018-01-05T08:15:49.150Z,93.63
2018-01-05T08:18:16.894Z,93.61
2018-01-05T08:20:44.652Z,93.80
2018-01-05T08:23:12.418Z,94.10
2018-01-05T08:25:40.348Z,93.49
2018-01-05T08:28:08.141Z,92.56
2018-01-05T08:30:35.839Z,92.87
2018-01-05T08:33:03.585Z,93.45
2018-01-05T08:35:31.330Z,92.97
2018-01-05T08:37:59.089Z,92.89
2018-01-05T08:40:26.837Z,92.63
2018-01-05T08:42:54.589Z,92.21
2018-01-05T08:45:22.323Z,91.78
2018-01-05T08:47:50.102Z,92.10
2018-01-05T08:50:17.956Z,92.06
2018-01-05T08:52:45.671Z,91.85
2018-01-05T08:55:13.529Z,91.66
2018-01-05T08:57:41.326Z,91.84
2018-01-05T09:00:09.036Z,91.26
2018-01-05T09:02:36.784Z,91.81
2018-01-05T09:05:04.495Z,91.88
2018-01-05T09:07:32.212Z,92.26
2018-01-05T09:10:00.135Z,92.57
2018-01-05T09:12:28.046Z,92.87
2018-01-05T09:14:56.677Z,92.34
2018-01-05T09:17:24.483Z,91.70
2018-01-05T09:19:52.244Z,91.06
2018-01-05T09:22:20.082Z,90.99
2018-01-05T09:24:47.898Z,90.43
2018-01-05T09:27:15.625Z,90.00
2018-01-05T09:29:43.376Z,90.60
2018-01-05T09:32:11.157Z,90.43
2018-01-05T09:34:38.921Z,90.17
2018-01-05T09:37:06.678Z,90.00
2018-01-05T09:39:34.517Z,89.39
2018-01-05T09:42:02.348Z,88.31
2018-01-05T09:44:30.127Z,88.66
2018-01-05T09:46:57.844Z,86.79
2018-01-05T09:49:25.548Z,88.25
2018-01-05T09:51:53.457Z,88.83
2018-01-05T09:54:21.200Z,88.84
2018-01-05T09:56:48.943Z,90.87
2018-01-05T09:59:16.752Z,92.69
2018-01-05T10:01:44.493Z,91.96
2018-01-05T10:04:12.205Z,90.74
2018-01-05T10:06:40.022Z,89.90
2018-01-05T10:09:07.834Z,89.95
2018-01-05T10:11:35.611Z,89.57
2018-01-05T10:14:04.157Z,88.96
2018-01-05T10:16:31.913Z,88.63
2018-01-05T10:18:59.662Z,87.64
2018-01-05T10:21:27.504Z,86.34
2018-01-05T10:23:55.318Z,86.68
2018-01-05T10:26:23.068Z,85.06
2018-01-05T10:28:50.893Z,88.61
2018-01-05T10:31:18.665Z,90.09
2018-01-05T10:33:46.369Z,89.76
2018-01-05T10:36:14.165Z,89.96
2018-01-05T10:38:41.898Z,90.21
2018-01-05T10:41:09.655Z,90.15
2018-01-05T10:43:37.508Z,91.35
2018-01-05T10:46:05.319Z,91.58
2018-01-05T10:48:33.249Z,92.16
2018-01-05T10:51:01.378Z,91.31
2018-01-05T10:53:29.155Z,90.74
2018-01-05T10:55:56.941Z,91.28
2018-01-05T10:58:24.632Z,92.05
2018-01-05T11:00:52.411Z,92.40
2018-01-05T11:03:20.957Z,91.04
2018-01-05T11:05:48.748Z,89.86
2018-01-05T11:08:16.592Z,91.37
2018-01-05T11:10:44.322Z,91.28
2018-01-05T11:13:12.125Z,90.48
2018-01-05T11:15:39.840Z,91.30
2018-01-05T11:18:07.573Z,91.76
2018-01-05T11:20:35.582Z,93.22
2018-01-05T11:23:03.655Z,93.34
2018-01-05T11:25:31.385Z,93.64
2018-01-05T11:27:59.156Z,93.14
2018-01-05T11:30:26.877Z,92.92
2018-01-05T11:32:55.489Z,93.30
2018-01-05T11:35:23.306Z,92.82
2018-01-05T11:37:51.068Z,92.02
2018-01-05T11:40:18.885Z,91.76
2018-01-05T11:42:46.582Z,91.74
2018-01-05T11:45:14.619Z,91.55
2018-01-05T11:47:42.360Z,89.63
2018-01-05T11:50:10.110Z,89.81
2018-01-05T11:52:37.898Z,89.47
2018-01-05T11:55:05.604Z,90.77
2018-01-05T11:57:33.392Z,90.85
2018-01-05T12:00:02.702Z,89.76
2018-01-05T12:02:30.614Z,90.42
2018-01-05T12:04:58.343Z,89.39
2018-01-05T12:07:26.337Z,89.32
2018-01-05T12:09:54.069Z,89.26
2018-01-05T12:12:21.860Z,91.56
2018-01-05T12:14:49.650Z,92.59
2018-01-05T12:17:17.453Z,93.04
2018-01-05T12:19:45.228Z,94.41
2018-01-05T12:22:13.014Z,94.13
2018-01-05T12:24:40.742Z,93.76
2018-01-05T12:27:08.500Z,93.30
2018-01-05T12:29:36.563Z,93.47
2018-01-05T12:32:04.370Z,92.66
2018-01-05T12:34:32.200Z,91.36
2018-01-05T12:36:59.931Z,90.95
2018-01-05T12:39:27.697Z,90.86
2018-01-05T12:41:55.478Z,91.05
2018-01-05T12:44:23.232Z,90.58
2018-01-05T12:46:51.033Z,90.71
2018-01-05T12:49:18.803Z,91.04
2018-01-05T12:51:46.637Z,91.76
2018-01-05T12:54:14.601Z,92.84
2018-01-05T12:56:42.342Z,93.29
2018-01-05T12:59:10.125Z,92.69
2018-01-05T13:01:37.931Z,93.80
2018-01-05T13:04:05.765Z,93.71
2018-01-05T13:06:33.568Z,92.89
2018-01-05T13:09:01.379Z,93.13
2018-01-05T13:11:30.367Z,92.89
2018-01-05T13:13:58.103Z,92.62
2018-01-05T13:16:25.936Z,91.70
2018-01-05T13:18:53.647Z,91.14
2018-01-05T13:21:21.396Z,91.89
2018-01-05T13:23:49.193Z,92.48
2018-01-05T13:26:16.909Z,94.14
2018-01-05T13:28:44.611Z,93.61
2018-01-05T13:31:12.401Z,93.60
2018-01-05T13:33:40.179Z,93.93
2018-01-05T13:36:07.997Z,93.92
2018-01-05T13:38:35.714Z,93.66
2018-01-05T13:41:03.520Z,93.40
2018-01-05T13:43:31.285Z,93.10
2018-01-05T13:45:59.068Z,93.70
2018-01-05T13:48:26.834Z,93.61
2018-01-05T13:50:54.549Z,93.66
2018-01-05T13:53:23.383Z,93.19
2018-01-05T13:55:51.173Z,93.92
2018-01-05T13:58:18.906Z,94.93
2018-01-05T14:00:47.905Z,94.95
2018-01-05T14:03:15.731Z,94.80
2018-01-05T14:05:44.759Z,95.52
2018-01-05T14:08:12.588Z,95.28
2018-01-05T14:10:40.400Z,94.48
2018-01-05T14:13:08.141Z,93.79
2018-01-05T14:15:35.928Z,93.62
2018-01-05T14:18:03.724Z,93.97
2018-01-05T14:20:31.509Z,93.63
2018-01-05T14:22:59.312Z,93.32
2018-01-05T14:25:27.149Z,93.17
2018-01-05T14:27:55.007Z,93.51
2018-01-05T14:30:23.923Z,94.35
2018-01-05T14:32:51.687Z,95.43
2018-01-05T14:35:19.437Z,95.47
2018-01-05T14:37:47.913Z,95.29
2018-01-05T14:40:15.750Z,94.98
2018-01-05T14:42:43.557Z,94.82
2018-01-05T14:45:11.347Z,94.56
2018-01-05T14:47:39.199Z,93.98
2018-01-05T14:50:06.999Z,93.87
2018-01-05T14:52:34.911Z,94.34
2018-01-05T14:55:02.677Z,95.04
2018-01-05T14:57:30.480Z,95.67
2018-01-05T14:59:58.322Z,95.59
2018-01-05T15:02:29.676Z,95.26
2018-01-05T15:04:57.495Z,95.05
2018-01-05T15:07:25.275Z,95.30
2018-01-05T15:09:53.025Z,95.57
2018-01-05T15:12:20.887Z,95.41
2018-01-05T15:14:48.843Z,95.68
2018-01-05T15:17:16.643Z,95.55
2018-01-05T15:19:44.451Z,95.69
2018-01-05T15:22:12.180Z,95.60
2018-01-05T15:24:40.071Z,95.37
2018-01-05T15:27:07.923Z,95.29
2018-01-05T15:29:35.784Z,95.15
2018-01-05T15:32:03.590Z,95.04
2018-01-05T15:34:31.407Z,95.22
2018-01-05T15:36:59.227Z,95.83
2018-01-05T15:39:27.041Z,96.17
2018-01-05T15:41:54.876Z,96.12
2018-01-05T15:44:22.711Z,95.68
2018-01-05T15:46:50.566Z,95.74
2018-01-05T15:49:18.335Z,95.67
2018-01-05T15:51:46.256Z,95.83
2018-01-05T15:54:14.272Z,96.10
2018-01-05T15:56:42.125Z,95.95
2018-01-05T15:59:09.932Z,96.32
2018-01-05T16:01:37.763Z,96.38
2018-01-05T16:04:05.704Z,96.32
2018-01-05T16:06:33.509Z,95.60
2018-01-05T16:09:01.264Z,95.50
2018-01-05T16:11:29.086Z,95.38
2018-01-05T16:13:56.896Z,95.06
2018-01-05T16:16:24.650Z,94.75
2018-01-05T16:18:52.585Z,94.65
2018-01-05T16:21:20.400Z,94.50
2018-01-05T16:23:48.166Z,94.42
2018-01-05T16:26:15.921Z,94.56
2018-01-05T16:28:43.773Z,94.61
2018-01-05T16:31:11.542Z,94.55
2018-01-05T16:33:40.551Z,94.99
2018-01-05T16:36:08.371Z,94.88
2018-01-05T16:38:37.273Z,94.67
2018-01-05T16:41:05.077Z,94.80
2018-01-05T16:43:32.893Z,94.92
2018-01-05T16:46:00.614Z,95.04
2018-01-05T16:48:28.418Z,95.16
2018-01-05T16:50:56.123Z,94.79
2018-01-05T16:53:23.916Z,94.44
2018-01-05T16:55:51.946Z,94.35
2018-01-05T16:58:19.724Z,94.30
2018-01-05T17:00:47.415Z,94.13
2018-01-05T17:03:15.206Z,94.14
2018-01-05T17:05:42.958Z,94.22
2018-01-05T17:08:10.724Z,95.10
2018-01-05T17:10:39.504Z,94.99
2018-01-05T17:13:07.313Z,94.81
2018-01-05T17:15:35.022Z,94.60
2018-01-05T17:18:02.760Z,95.12
2018-01-05T17:20:30.567Z,95.30
2018-01-05T17:22:58.741Z,95.13
2018-01-05T17:25:26.537Z,94.92
2018-01-05T17:27:55.210Z,94.92
2018-01-05T17:30:22.945Z,95.11
2018-01-05T17:32:51.701Z,95.12
2018-01-05T17:35:19.494Z,95.29
2018-01-05T17:37:47.263Z,95.10
2018-01-05T17:40:15.222Z,94.68
2018-01-05T17:42:44.071Z,94.23
2018-01-05T17:45:11.878Z,94.33
2018-01-05T17:47:39.636Z,94.55
2018-01-05T17:50:07.458Z,94.87
2018-01-05T17:52:35.257Z,94.81
2018-01-05T17:55:03.197Z,94.25
2018-01-05T17:57:30.941Z,94.29
2018-01-05T17:59:58.756Z,94.55
2018-01-05T18:02:26.524Z,94.63
2018-01-05T18:04:54.329Z,94.53
2018-01-05T18:07:22.284Z,94.84
2018-01-05T18:09:50.094Z,95.08
2018-01-05T18:12:20.105Z,94.68
2018-01-05T18:14:48.169Z,94.42
2018-01-05T18:17:15.890Z,94.14
2018-01-05T18:19:44.533Z,94.18
2018-01-05T18:22:12.356Z,94.14
2018-01-05T18:24:40.130Z,94.16
2018-01-05T18:27:08.044Z,94.74
2018-01-05T18:29:36.079Z,95.43
2018-01-05T18:32:03.894Z,95.78
2018-01-05T18:34:31.922Z,95.41
2018-01-05T18:36:59.839Z,94.96
2018-01-05T18:39:27.816Z,95.76
2018-01-05T18:41:55.676Z,96.17
2018-01-05T18:44:24.792Z,96.23
2018-01-05T18:46:52.808Z,96.03
2018-01-05T18:49:21.187Z,95.55
2018-01-05T18:51:49.040Z,95.28
2018-01-05T18:54:16.889Z,95.56
2018-01-05T18:56:44.874Z,95.72
2018-01-05T18:59:13.600Z,95.56
2018-01-05T19:01:41.384Z,95.69
2018-01-05T19:04:09.187Z,96.30
2018-01-05T19:06:40.909Z,96.26
2018-01-05T19:09:08.779Z,96.60
2018-01-05T19:11:36.584Z,96.61
2018-01-05T19:14:04.473Z,96.69
2018-01-05T19:16:32.243Z,96.60
2018-01-05T19:19:00.199Z,96.12
2018-01-05T19:21:27.969Z,95.68
2018-01-05T19:23:55.711Z,95.50
2018-01-05T19:26:23.445Z,95.51
2018-01-05T19:28:51.237Z,95.89
2018-01-05T19:31:19.043Z,96.53
2018-01-05T19:33:46.899Z,96.86
2018-01-05T19:36:15.769Z,97.02
2018-01-05T19:38:43.602Z,97.24
2018-01-05T19:41:11.498Z,97.29
2018-01-05T19:43:39.578Z,97.17
2018-01-05T19:46:07.442Z,96.86
2018-01-05T19:48:35.425Z,96.43
2018-01-05T19:51:03.282Z,96.51
2018-01-05T19:53:31.059Z,96.71
2018-01-05T19:55:58.841Z,96.64
2018-01-05T19:58:26.632Z,96.40
2018-01-05T20:00:54.442Z,96.40
2018-01-05T20:03:22.289Z,96.08
2018-01-05T20:05:50.290Z,95.33
2018-01-05T20:08:18.425Z,95.17
2018-01-05T20:10:46.584Z,95.21
2018-01-05T20:13:14.685Z,95.20
2018-01-05T20:15:42.787Z,95.08
2018-01-05T20:18:11.060Z,94.88
2018-01-05T20:20:39.213Z,95.03
2018-01-05T20:23:08.473Z,95.19
2018-01-05T20:25:37.844Z,95.18
2018-01-05T20:28:06.420Z,95.15
2018-01-05T20:30:36.759Z,95.03
2018-01-05T20:33:05.291Z,94.98
2018-01-05T20:35:34.548Z,95.61
2018-01-05T20:38:08.754Z,95.68
2018-01-05T20:40:36.917Z,95.78
2018-01-05T20:43:05.683Z,95.35
2018-01-05T20:45:34.768Z,94.98
2018-01-05T20:48:02.916Z,94.61
2018-01-05T20:50:33.722Z,94.28
2018-01-05T20:53:02.429Z,94.85
2018-01-05T20:55:31.803Z,94.73
2018-01-05T20:57:59.995Z,94.25
2018-01-05T21:00:29.336Z,94.22
2018-01-05T21:02:57.656Z,94.37
2018-01-05T21:05:26.537Z,95.09
2018-01-05T21:07:55.817Z,95.92
2018-01-05T21:10:23.996Z,96.09
2018-01-05T21:12:52.415Z,95.72
2018-01-05T21:15:20.801Z,95.54
2018-01-05T21:17:48.902Z,95.81
2018-01-05T21:20:16.838Z,95.55
2018-01-05T21:22:44.782Z,95.28
2018-01-05T21:25:12.635Z,95.10
2018-01-05T21:27:41.044Z,95.14
2018-01-05T21:30:09.729Z,95.05
2018-01-05T21:32:39.122Z,94.80
2018-01-05T21:35:07.657Z,94.81
2018-01-05T21:37:35.615Z,94.94
2018-01-05T21:40:03.538Z,95.12
2018-01-05T21:42:31.277Z,95.12
2018-01-05T21:44:59.187Z,95.11
2018-01-05T21:47:26.964Z,94.98
2018-01-05T21:49:54.733Z,94.95
2018-01-05T21:52:22.540Z,94.92
2018-01-05T21:54:50.367Z,95.12
2018-01-05T21:57:18.204Z,95.33
2018-01-05T21:59:46.082Z,95.09
2018-01-05T22:02:13.939Z,94.94
2018-01-05T22:04:41.737Z,95.91
2018-01-05T22:07:09.688Z,96.08
2018-01-05T22:09:37.491Z,95.94
2018-01-05T22:12:06.234Z,95.82
2018-01-05T22:14:33.995Z,95.81
2018-01-05T22:17:01.820Z,95.66
2018-01-05T22:19:29.549Z,95.87
2018-01-05T22:21:57.343Z,95.48
2018-01-05T22:24:25.070Z,94.73
2018-01-05T22:26:52.796Z,94.19
2018-01-05T22:29:20.594Z,93.96
2018-01-05T22:31:48.311Z,94.18
2018-01-05T22:34:16.024Z,94.74
2018-01-05T22:36:43.986Z,94.87
2018-01-05T22:39:11.724Z,95.66
2018-01-05T22:41:39.548Z,96.24
2018-01-05T22:44:07.280Z,96.21
2018-01-05T22:46:35.090Z,96.53
2018-01-05T22:49:02.946Z,96.42
2018-01-05T22:51:30.886Z,96.06
2018-01-05T22:53:58.654Z,95.78
2018-01-05T22:56:26.406Z,95.56
2018-01-05T22:58:54.120Z,95.39
2018-01-05T23:01:21.840Z,95.24
2018-01-05T23:03:49.637Z,95.21
2018-01-05T23:06:17.550Z,95.19
2018-01-05T23:08:45.295Z,95.09
2018-01-05T23:11:13.129Z,95.04
2018-01-05T23:13:40.916Z,94.88
2018-01-05T23:16:08.630Z,94.84
2018-01-05T23:18:36.382Z,94.91
2018-01-05T23:21:04.123Z,95.01
2018-01-05T23:23:31.920Z,95.05
2018-01-05T23:25:59.634Z,95.12
2018-01-05T23:28:27.313Z,95.13
2018-01-05T23:30:55.077Z,95.14
2018-01-05T23:33:22.772Z,95.08
2018-01-05T23:35:50.727Z,95.22
2018-01-05T23:38:18.446Z,95.23
2018-01-05T23:40:46.165Z,95.21
2018-01-05T23:43:13.909Z,95.60
2018-01-05T23:45:41.622Z,95.69
2018-01-05T23:48:09.402Z,95.46
2018-01-05T23:50:37.148Z,95.30
2018-01-05T23:53:05.713Z,95.12
2018-01-05T23:55:33.465Z,94.65
2018-01-05T23:58:01.189Z,94.25
